Time;durP1;ratioP1;P1;durP2;ratioP2;P2;SDS_P1;SDS_P2;PMS_P1;PMS_P2;Temp;Humidity;BMP_temperature;BMP_pressure;BME280_temperature;BME280_humidity;BME280_pressure;Samples;Min_cycle;Max_cycle;Signal;HPM_P1;HPM_P2
2023/08/11 00:00:12;;;;;;;3.03;1.10;;;17.70;99.90;;;;;;5094141;28;20391;-48
2023/08/11 00:02:38;;;;;;;3.33;1.33;;;17.70;99.90;;;;;;5095324;28;20044;-47
2023/08/11 00:05:05;;;;;;;3.83;1.25;;;17.70;99.90;;;;;;5095208;28;20047;-46
2023/08/11 00:07:31;;;;;;;3.55;1.20;;;17.70;99.90;;;;;;5095287;28;20399;-47
2023/08/11 00:09:57;;;;;;;3.03;1.25;;;17.70;99.90;;;;;;5095159;28;20039;-47
2023/08/11 00:12:22;;;;;;;3.28;1.23;;;17.60;99.90;;;;;;5095318;28;20040;-48
2023/08/11 00:14:48;;;;;;;4.15;1.25;;;17.60;99.90;;;;;;5095072;28;20498;-47
2023/08/11 00:17:14;;;;;;;3.88;1.10;;;17.60;99.90;;;;;;5095277;28;20085;-46
2023/08/11 00:19:40;;;;;;;;;;;17.60;99.90;;;;;;5095143;28;20090;-47
2023/08/11 00:22:07;;;;;;;2.75;1.25;;;17.60;99.90;;;;;;5095020;28;19971;-47
2023/08/11 00:24:33;;;;;;;2.60;1.13;;;17.50;99.90;;;;;;5095246;28;20056;-47
2023/08/11 00:27:01;;;;;;;2.13;1.05;;;17.50;99.90;;;;;;5094969;28;20051;-48
2023/08/11 00:29:26;;;;;;;2.63;1.40;;;17.50;99.90;;;;;;5094875;28;20066;-47
2023/08/11 00:31:53;;;;;;;3.42;1.70;;;17.40;99.90;;;;;;5094656;28;20490;-47
2023/08/11 00:34:19;;;;;;;3.33;1.40;;;17.40;99.90;;;;;;5094731;28;20422;-47
2023/08/11 00:36:45;;;;;;;3.03;1.30;;;17.40;99.90;;;;;;5094774;28;20051;-47
2023/08/11 00:39:12;;;;;;;4.00;1.23;;;17.30;99.90;;;;;;5094656;28;20040;-47
2023/08/11 00:41:38;;;;;;;3.22;1.40;;;17.30;99.90;;;;;;5094494;28;20510;-47
2023/08/11 00:44:03;;;;;;;4.45;1.40;;;17.20;99.90;;;;;;5094568;28;20040;-47
2023/08/11 00:46:29;;;;;;;5.05;1.85;;;17.20;99.90;;;;;;5076338;28;20201;-47
2023/08/11 00:48:55;;;;;;;2.88;1.30;;;17.10;99.90;;;;;;5094326;28;20047;-46
2023/08/11 00:51:23;;;;;;;3.10;1.55;;;17.10;99.90;;;;;;5093954;28;20062;-47
2023/08/11 00:53:49;;;;;;;4.68;1.50;;;17.00;99.90;;;;;;5094458;28;20164;-48
2023/08/11 00:56:19;;;;;;;3.13;1.40;;;17.00;99.90;;;;;;5094297;28;20043;-46
2023/08/11 00:58:45;;;;;;;4.28;1.33;;;16.90;99.90;;;;;;5094282;28;20040;-48
2023/08/11 01:01:11;;;;;;;;;;;16.90;99.90;;;;;;5094818;28;20039;-47
2023/08/11 01:03:36;;;;;;;3.75;2.10;;;16.80;99.90;;;;;;5094184;28;19920;-47
2023/08/11 01:06:12;;;;;;;4.18;1.60;;;16.80;99.90;;;;;;5093089;28;20079;-48
2023/08/11 01:08:46;;;;;;;3.53;1.50;;;16.80;99.90;;;;;;5094256;28;20113;-48
2023/08/11 01:11:25;;;;;;;4.45;1.75;;;16.70;99.90;;;;;;5094029;28;20047;-47
2023/08/11 01:13:58;;;;;;;4.45;2.00;;;16.70;99.90;;;;;;5093883;28;20051;-47
2023/08/11 01:16:24;;;;;;;4.22;2.03;;;16.70;99.90;;;;;;5094207;28;20491;-48
2023/08/11 01:18:50;;;;;;;4.50;1.80;;;16.60;99.90;;;;;;5094018;28;20082;-47
2023/08/11 01:21:17;;;;;;;3.22;1.55;;;16.60;99.90;;;;;;5093877;28;20487;-48
2023/08/11 01:23:43;;;;;;;4.32;2.00;;;16.50;99.90;;;;;;5093909;28;20080;-47
2023/08/11 01:26:11;;;;;;;5.60;2.25;;;16.50;99.90;;;;;;5094128;28;20047;-47
2023/08/11 01:28:37;;;;;;;3.80;1.90;;;16.40;99.90;;;;;;5093872;28;20067;-47
2023/08/11 01:31:05;;;;;;;4.10;1.63;;;16.40;99.90;;;;;;5094195;28;20044;-47
2023/08/11 01:33:31;;;;;;;4.40;1.85;;;16.40;99.90;;;;;;5092339;28;20095;-46
2023/08/11 01:35:57;;;;;;;6.03;1.85;;;16.40;99.90;;;;;;5094227;28;20093;-47
2023/08/11 01:38:22;;;;;;;4.70;2.10;;;16.40;99.90;;;;;;5093562;28;20048;-47
2023/08/11 01:40:48;;;;;;;5.32;2.22;;;16.30;99.90;;;;;;5093667;28;20475;-46
2023/08/11 01:43:16;;;;;;;4.38;2.10;;;16.30;99.90;;;;;;5093730;28;20475;-47
2023/08/11 01:45:48;;;;;;;3.55;1.65;;;16.30;99.90;;;;;;5093784;28;20498;-47
2023/08/11 01:48:16;;;;;;;4.28;2.00;;;16.30;99.90;;;;;;5093818;28;20048;-46
2023/08/11 01:50:43;;;;;;;4.38;2.03;;;16.20;99.90;;;;;;5093513;28;20048;-47
2023/08/11 01:53:09;;;;;;;6.40;2.10;;;16.20;99.90;;;;;;5093598;28;20044;-46
2023/08/11 01:55:35;;;;;;;4.43;2.08;;;16.20;99.90;;;;;;5092644;28;20048;-47
2023/08/11 01:58:01;;;;;;;5.35;1.75;;;16.10;99.90;;;;;;5095115;28;20044;-46
2023/08/11 02:00:28;;;;;;;4.53;2.15;;;16.10;99.90;;;;;;5097779;28;20397;-46
2023/08/11 02:02:54;;;;;;;4.10;1.88;;;16.10;99.90;;;;;;5096550;28;20076;-46
2023/08/11 02:05:20;;;;;;;3.50;1.90;;;16.00;99.90;;;;;;5097600;28;20083;-47
2023/08/11 02:07:46;;;;;;;7.93;2.30;;;16.00;99.90;;;;;;5097506;28;20079;-46
2023/08/11 02:10:12;;;;;;;3.80;2.00;;;16.00;99.90;;;;;;5097499;28;20047;-46
2023/08/11 02:12:39;;;;;;;4.82;2.42;;;16.00;99.90;;;;;;5097465;28;20040;-47
2023/08/11 02:15:05;;;;;;;4.10;1.98;;;15.90;99.90;;;;;;5097509;28;20482;-46
2023/08/11 02:17:32;;;;;;;5.07;2.45;;;15.90;99.90;;;;;;5097487;28;20075;-47
2023/08/11 02:19:59;;;;;;;4.85;2.28;;;15.90;99.90;;;;;;5097289;28;20036;-46
2023/08/11 02:22:25;;;;;;;5.53;2.47;;;15.80;99.90;;;;;;5097056;28;20514;-47
2023/08/11 02:24:51;;;;;;;4.68;2.38;;;15.80;99.90;;;;;;5096968;28;20047;-46
2023/08/11 02:27:17;;;;;;;4.57;2.42;;;15.80;99.90;;;;;;5097314;28;20040;-46
2023/08/11 02:29:44;;;;;;;4.82;2.40;;;15.80;99.90;;;;;;5096315;28;20059;-47
2023/08/11 02:32:11;;;;;;;5.40;2.80;;;15.70;99.90;;;;;;5096986;28;20395;-46
2023/08/11 02:34:37;;;;;;;5.45;2.83;;;15.70;99.90;;;;;;5097044;28;20087;-47
2023/08/11 02:37:02;;;;;;;5.38;2.75;;;15.70;99.90;;;;;;5096034;28;20079;-46
2023/08/11 02:39:28;;;;;;;4.63;2.20;;;15.70;99.90;;;;;;5095851;28;20431;-48
2023/08/11 02:41:55;;;;;;;5.78;2.92;;;15.70;99.90;;;;;;5096783;28;20102;-46
2023/08/11 02:44:22;;;;;;;5.45;2.88;;;15.60;99.90;;;;;;5096897;28;20144;-48
2023/08/11 02:46:48;;;;;;;5.70;3.00;;;15.70;99.90;;;;;;5097143;28;20129;-47
2023/08/11 02:49:13;;;;;;;5.45;2.83;;;15.70;99.90;;;;;;5096870;28;20557;-47
2023/08/11 02:51:39;;;;;;;6.18;3.10;;;15.70;99.90;;;;;;5096720;28;20122;-48
2023/08/11 02:54:05;;;;;;;6.03;3.35;;;15.70;99.90;;;;;;5095631;28;20112;-46
2023/08/11 02:56:31;;;;;;;7.22;3.15;;;15.60;99.90;;;;;;5096692;28;20062;-47
2023/08/11 02:58:56;;;;;;;5.63;3.40;;;15.60;99.90;;;;;;5096931;28;20093;-46
2023/08/11 03:01:25;;;;;;;5.15;3.03;;;15.70;99.90;;;;;;5096869;28;20048;-46
2023/08/11 03:03:52;;;;;;;5.78;3.42;;;15.60;99.90;;;;;;5096623;28;20050;-47
2023/08/11 03:06:18;;;;;;;6.18;3.50;;;15.60;99.90;;;;;;5096506;28;20079;-46
2023/08/11 03:08:44;;;;;;;6.72;3.78;;;15.60;99.90;;;;;;5096234;28;20083;-47
2023/08/11 03:11:09;;;;;;;6.25;3.63;;;15.60;99.90;;;;;;5096404;28;20047;-47
2023/08/11 03:13:36;;;;;;;7.63;4.18;;;15.60;99.90;;;;;;5096587;28;20398;-47
2023/08/11 03:16:02;;;;;;;8.73;3.67;;;15.60;99.90;;;;;;5095470;28;20051;-47
2023/08/11 03:18:27;;;;;;;6.82;3.75;;;15.60;99.90;;;;;;5096182;28;20047;-46
2023/08/11 03:20:53;;;;;;;8.10;4.68;;;15.50;99.90;;;;;;5096068;28;20069;-47
2023/08/11 03:23:20;;;;;;;7.03;4.15;;;15.50;99.90;;;;;;5095989;28;20066;-46
2023/08/11 03:25:46;;;;;;;7.68;4.50;;;15.50;99.90;;;;;;5096172;28;20082;-47
2023/08/11 03:28:11;;;;;;;9.20;5.05;;;15.50;99.90;;;;;;5096106;28;20105;-46
2023/08/11 03:30:37;;;;;;;8.95;5.20;;;15.50;99.90;;;;;;5095989;28;20044;-46
2023/08/11 03:33:03;;;;;;;9.75;5.47;;;15.50;99.90;;;;;;5096010;28;20104;-46
2023/08/11 03:35:32;;;;;;;7.85;5.03;;;15.50;99.90;;;;;;5094656;28;20044;-47
2023/08/11 03:37:58;;;;;;;8.85;4.32;;;15.60;99.90;;;;;;5095667;28;20040;-46
2023/08/11 03:40:24;;;;;;;7.38;4.20;;;15.60;99.90;;;;;;5095720;28;20045;-47
2023/08/11 03:42:49;;;;;;;8.73;4.90;;;15.60;99.90;;;;;;5095848;28;20052;-46
2023/08/11 03:45:15;;;;;;;8.15;4.95;;;15.50;99.90;;;;;;5095915;28;20401;-47
2023/08/11 03:47:42;;;;;;;9.25;5.43;;;15.50;99.90;;;;;;5095748;28;20055;-47
2023/08/11 03:50:08;;;;;;;8.85;4.97;;;15.50;99.90;;;;;;5094653;28;20060;-47
2023/08/11 03:52:36;;;;;;;7.85;4.93;;;15.50;99.90;;;;;;5095367;28;20044;-47
2023/08/11 03:55:02;;;;;;;7.38;4.60;;;15.50;99.90;;;;;;5095782;28;20145;-46
2023/08/11 03:57:28;;;;;;;;;;;15.50;99.90;;;;;;5095996;28;20052;-47
2023/08/11 03:59:53;;;;;;;7.80;4.40;;;15.50;99.90;;;;;;5095279;28;20285;-47
2023/08/11 04:02:19;;;;;;;7.68;4.70;;;15.40;99.90;;;;;;5095570;28;20067;-46
2023/08/11 04:04:45;;;;;;;7.75;4.22;;;15.40;99.90;;;;;;5095348;28;20040;-46
2023/08/11 04:07:11;;;;;;;7.45;4.75;;;15.40;99.90;;;;;;5095227;28;20071;-46
2023/08/11 04:09:43;;;;;;;6.50;4.10;;;15.40;99.90;;;;;;5095233;28;20040;-46
2023/08/11 04:12:10;;;;;;;9.32;4.70;;;15.40;99.90;;;;;;5095236;28;20130;-47
2023/08/11 04:14:37;;;;;;;7.88;4.72;;;15.30;99.90;;;;;;5095174;28;20044;-47
2023/08/11 04:17:03;;;;;;;8.38;4.35;;;15.40;99.90;;;;;;5094065;28;20139;-47
2023/08/11 04:19:28;;;;;;;7.70;5.07;;;15.40;99.90;;;;;;5094834;28;20127;-49
2023/08/11 04:21:54;;;;;;;8.53;4.70;;;15.40;99.90;;;;;;5094337;28;20114;-46
2023/08/11 04:24:19;;;;;;;8.38;4.80;;;15.40;99.90;;;;;;5093822;28;20481;-47
2023/08/11 04:26:45;;;;;;;7.85;4.82;;;15.50;99.90;;;;;;5093774;28;20551;-46
2023/08/11 04:29:12;;;;;;;7.72;4.15;;;15.50;99.90;;;;;;5094918;28;20032;-47
2023/08/11 04:31:38;;;;;;;7.38;4.18;;;15.60;99.90;;;;;;5094942;28;20403;-46
2023/08/11 04:34:06;;;;;;;7.18;4.28;;;15.60;99.90;;;;;;5094559;28;20056;-46
2023/08/11 04:36:32;;;;;;;8.68;4.75;;;15.60;99.90;;;;;;5094499;28;20410;-46
2023/08/11 04:38:58;;;;;;;8.73;3.85;;;15.60;99.90;;;;;;5094938;28;20043;-46
2023/08/11 04:41:23;;;;;;;11.13;4.40;;;15.60;99.90;;;;;;5094653;28;20048;-46
2023/08/11 04:43:49;;;;;;;8.60;4.37;;;15.60;99.90;;;;;;5094505;28;20071;-46
2023/08/11 04:46:15;;;;;;;7.28;4.30;;;15.60;99.90;;;;;;5094516;28;20286;-46
2023/08/11 04:48:41;;;;;;;7.18;4.00;;;15.60;99.90;;;;;;5094466;28;20048;-47
2023/08/11 04:51:06;;;;;;;6.82;4.22;;;15.70;99.90;;;;;;5094794;28;20077;-46
2023/08/11 04:53:32;;;;;;;7.63;3.77;;;15.70;99.90;;;;;;5094689;28;20131;-47
2023/08/11 04:55:58;;;;;;;6.82;3.92;;;15.70;99.90;;;;;;5094429;28;20286;-47
2023/08/11 04:58:24;;;;;;;7.55;3.70;;;15.80;99.90;;;;;;5094299;28;20043;-46
2023/08/11 05:00:50;;;;;;;8.23;4.30;;;15.70;99.90;;;;;;5094156;28;20051;-46
2023/08/11 05:03:15;;;;;;;7.00;3.72;;;15.80;99.90;;;;;;5093135;28;20048;-47
2023/08/11 05:05:41;;;;;;;6.38;3.58;;;15.80;99.90;;;;;;5093999;28;20047;-46
2023/08/11 05:08:07;;;;;;;7.10;3.95;;;15.90;99.90;;;;;;5094296;28;20100;-47
2023/08/11 05:10:33;;;;;;;7.72;4.22;;;15.90;99.90;;;;;;5094173;28;20047;-46
2023/08/11 05:12:59;;;;;;;8.30;3.90;;;15.90;99.90;;;;;;5093237;28;20239;-46
2023/08/11 05:15:24;;;;;;;8.55;4.00;;;15.90;99.90;;;;;;5094006;28;20047;-47
2023/08/11 05:17:50;;;;;;;7.53;4.22;;;16.00;99.90;;;;;;5092969;28;20517;-46
2023/08/11 05:20:16;;;;;;;6.70;3.90;;;16.00;99.90;;;;;;5093661;28;20498;-47
2023/08/11 05:22:43;;;;;;;6.97;4.00;;;16.10;99.90;;;;;;5094122;28;20055;-46
2023/08/11 05:25:09;;;;;;;6.53;4.00;;;16.10;99.90;;;;;;5093956;28;20162;-46
2023/08/11 05:27:35;;;;;;;7.10;4.03;;;16.20;99.90;;;;;;5093744;28;20127;-46
2023/08/11 05:30:01;;;;;;;7.35;3.92;;;16.20;99.90;;;;;;5093924;28;20173;-46
2023/08/11 05:32:28;;;;;;;6.63;4.00;;;16.20;99.90;;;;;;5091743;28;20166;-47
2023/08/11 05:34:55;;;;;;;6.93;3.92;;;16.30;99.90;;;;;;5093691;28;20048;-46
2023/08/11 05:37:24;;;;;;;6.07;3.58;;;16.30;99.90;;;;;;5093712;28;20482;-47
2023/08/11 05:39:53;;;;;;;6.10;3.50;;;16.40;99.90;;;;;;5093716;28;20040;-46
2023/08/11 05:42:19;;;;;;;6.03;3.60;;;16.50;99.90;;;;;;5093844;28;20380;-47
2023/08/11 05:44:46;;;;;;;6.53;3.60;;;16.50;99.90;;;;;;5092831;28;20079;-47
2023/08/11 05:47:12;;;;;;;7.95;3.53;;;16.60;99.90;;;;;;5093638;28;20387;-46
2023/08/11 05:49:38;;;;;;;7.35;3.90;;;16.60;99.90;;;;;;5093561;28;20548;-46
2023/08/11 05:52:04;;;;;;;7.00;3.75;;;16.70;99.90;;;;;;5093781;28;20052;-46
2023/08/11 05:54:30;;;;;;;8.25;3.60;;;16.80;99.90;;;;;;5093722;28;20040;-47
2023/08/11 05:56:55;;;;;;;6.72;3.45;;;17.10;99.90;;;;;;5093541;28;20127;-46
2023/08/11 05:59:21;;;;;;;6.07;3.40;;;17.40;99.90;;;;;;5093340;28;20123;-47
2023/08/11 06:01:47;;;;;;;6.03;3.17;;;17.70;99.90;;;;;;5093569;28;20098;-47
2023/08/11 06:04:13;;;;;;;8.77;3.30;;;17.90;99.90;;;;;;5093322;28;20498;-47
2023/08/11 06:06:39;;;;;;;6.28;3.17;;;18.10;99.90;;;;;;5092402;28;20048;-47
2023/08/11 06:09:05;;;;;;;6.45;3.28;;;18.50;99.90;;;;;;5093528;28;20051;-47
2023/08/11 06:11:30;;;;;;;6.28;3.25;;;18.90;99.90;;;;;;5093598;28;20105;-46
2023/08/11 06:13:56;;;;;;;6.43;2.67;;;19.60;99.90;;;;;;5093477;28;20142;-47
2023/08/11 06:16:22;;;;;;;5.57;3.05;;;20.10;99.90;;;;;;5093182;28;20086;-48
2023/08/11 06:18:48;;;;;;;4.80;2.70;;;20.80;99.90;;;;;;5093679;28;20051;-47
2023/08/11 06:21:14;;;;;;;6.65;2.67;;;21.60;99.90;;;;;;5093241;28;20516;-47
2023/08/11 06:23:40;;;;;;;7.57;2.80;;;22.40;99.90;;;;;;5093604;28;20054;-47
2023/08/11 06:26:05;;;;;;;5.90;2.50;;;23.00;99.90;;;;;;5093420;28;20040;-47
2023/08/11 06:28:31;;;;;;;5.45;2.47;;;23.60;99.90;;;;;;5093434;28;20040;-47
2023/08/11 06:30:57;;;;;;;4.80;2.28;;;24.00;99.90;;;;;;5092448;28;20044;-47
2023/08/11 06:33:23;;;;;;;5.68;2.55;;;24.30;99.90;;;;;;5093107;28;20059;-47
2023/08/11 06:35:48;;;;;;;5.82;2.53;;;24.60;99.90;;;;;;5093268;28;20479;-47
2023/08/11 06:38:14;;;;;;;;;;;24.80;99.90;;;;;;5093145;28;20048;-47
2023/08/11 06:40:40;;;;;;;3.65;1.85;;;24.80;99.90;;;;;;5091987;28;19969;-47
2023/08/11 06:43:08;;;;;;;;;;;24.60;99.90;;;;;;5093714;28;20044;-47
2023/08/11 06:45:34;;;;;;;4.07;2.03;;;24.10;99.90;;;;;;5096735;28;19961;-47
2023/08/11 06:47:59;;;;;;;;;;;24.00;99.90;;;;;;5097119;28;20454;-47
2023/08/11 06:50:26;;;;;;;4.07;2.03;;;24.10;99.90;;;;;;5096974;28;19927;-48
2023/08/11 06:52:51;;;;;;;3.95;1.80;;;23.80;99.90;;;;;;5096821;28;20048;-47
2023/08/11 06:55:17;;;;;;;5.10;2.00;;;23.40;99.90;;;;;;5096896;28;20055;-47
2023/08/11 06:57:43;;;;;;;3.70;1.95;;;23.10;99.90;;;;;;5096641;28;20040;-47
2023/08/11 07:00:09;;;;;;;5.47;2.10;;;22.70;99.90;;;;;;5095453;28;20130;-47
2023/08/11 07:02:35;;;;;;;;;;;22.40;99.90;;;;;;5097470;28;20052;-47
2023/08/11 07:05:02;;;;;;;5.95;2.13;;;22.10;99.90;;;;;;5096892;28;19927;-47
2023/08/11 07:07:28;;;;;;;5.30;1.95;;;21.90;99.90;;;;;;5096293;28;20491;-47
2023/08/11 07:09:53;;;;;;;3.88;2.20;;;21.70;99.90;;;;;;5096298;28;20043;-47
2023/08/11 07:12:19;;;;;;;3.47;1.73;;;22.00;99.90;;;;;;5096197;28;20055;-47
2023/08/11 07:14:45;;;;;;;5.05;1.85;;;22.30;99.90;;;;;;5096109;28;20047;-48
2023/08/11 07:17:11;;;;;;;3.92;1.83;;;22.30;99.90;;;;;;5096516;28;20084;-47
2023/08/11 07:19:37;;;;;;;4.38;2.03;;;22.30;99.90;;;;;;5096509;28;20045;-47
2023/08/11 07:22:03;;;;;;;4.97;1.80;;;22.30;99.90;;;;;;5096282;28;20036;-46
2023/08/11 07:24:28;;;;;;;5.40;1.92;;;22.20;99.90;;;;;;5095262;28;20105;-47
2023/08/11 07:26:54;;;;;;;4.90;2.05;;;22.00;99.90;;;;;;5096093;28;20044;-46
2023/08/11 07:29:20;;;;;;;4.30;2.10;;;21.70;99.90;;;;;;5095930;28;20479;-47
2023/08/11 07:31:46;;;;;;;4.07;2.05;;;21.50;99.90;;;;;;5095371;28;20048;-47
2023/08/11 07:34:12;;;;;;;4.20;2.00;;;21.20;99.90;;;;;;5096223;28;20526;-47
2023/08/11 07:36:38;;;;;;;3.83;1.90;;;21.10;99.90;;;;;;5096019;28;20407;-46
2023/08/11 07:39:08;;;;;;;6.13;2.10;;;20.90;99.90;;;;;;5095797;28;20051;-47
2023/08/11 07:41:34;;;;;;;3.53;1.75;;;20.90;99.90;;;;;;5095873;28;20044;-47
2023/08/11 07:44:00;;;;;;;5.57;2.20;;;20.70;99.90;;;;;;5095755;28;20055;-46
2023/08/11 07:46:26;;;;;;;5.30;2.35;;;20.70;99.90;;;;;;5094787;28;20036;-48
2023/08/11 07:48:51;;;;;;;8.15;2.40;;;20.60;99.90;;;;;;5095783;28;20044;-46
2023/08/11 07:51:17;;;;;;;3.97;1.80;;;20.50;99.90;;;;;;5095537;28;20268;-47
2023/08/11 07:53:44;;;;;;;4.35;2.28;;;20.50;99.90;;;;;;5095592;28;20051;-46
2023/08/11 07:56:11;;;;;;;4.18;1.98;;;20.50;99.90;;;;;;5094534;28;20376;-47
2023/08/11 07:58:37;;;;;;;4.82;2.38;;;20.40;99.90;;;;;;5095158;28;20044;-46
2023/08/11 08:01:03;;;;;;;5.05;2.30;;;20.40;99.90;;;;;;5095498;28;20050;-47
2023/08/11 08:03:29;;;;;;;4.38;2.55;;;20.40;99.90;;;;;;5078077;28;20139;-47
2023/08/11 08:05:54;;;;;;;4.55;2.30;;;20.40;99.90;;;;;;5095534;28;20394;-47
2023/08/11 08:08:20;;;;;;;4.15;2.53;;;20.40;99.90;;;;;;5095338;28;20466;-47
2023/08/11 08:10:46;;;;;;;4.10;2.03;;;20.40;99.90;;;;;;5095258;28;20544;-47
2023/08/11 08:13:12;;;;;;;4.32;2.20;;;20.40;99.90;;;;;;5095030;28;20076;-47
2023/08/11 08:15:37;;;;;;;4.15;2.00;;;20.40;99.90;;;;;;5095148;28;20044;-47
2023/08/11 08:18:04;;;;;;;5.55;2.55;;;20.40;99.90;;;;;;5094438;28;20068;-47
2023/08/11 08:20:33;;;;;;;3.67;1.92;;;20.40;99.90;;;;;;5095329;28;20044;-46
2023/08/11 08:22:59;;;;;;;4.40;2.17;;;20.50;99.90;;;;;;5095344;28;20117;-47
2023/08/11 08:25:25;;;;;;;4.32;2.25;;;20.50;99.90;;;;;;5128171;27;20483;-47
2023/08/11 08:27:50;;;;;;;3.80;2.15;;;20.50;99.90;;;;;;5094958;28;20100;-47
2023/08/11 08:30:16;;;;;;;5.10;2.95;;;20.50;99.90;;;;;;5095097;28;20407;-47
2023/08/11 08:32:42;;;;;;;5.65;2.30;;;20.60;99.90;;;;;;5094928;28;20498;-47
2023/08/11 08:35:09;;;;;;;4.45;2.10;;;20.60;99.90;;;;;;5094904;28;20083;-46
2023/08/11 08:37:35;;;;;;;4.75;2.13;;;20.60;99.90;;;;;;5094727;28;20040;-47
2023/08/11 08:40:01;;;;;;;3.88;2.22;;;20.70;99.90;;;;;;5094558;28;20044;-47
2023/08/11 08:42:27;;;;;;;4.28;2.58;;;20.70;99.90;;;;;;5094468;28;20410;-47
2023/08/11 08:44:54;;;;;;;5.38;2.13;;;20.70;99.90;;;;;;5094642;28;20048;-47
2023/08/11 08:47:24;;;;;;;4.03;2.00;;;20.80;99.90;;;;;;5094558;28;20051;-46
2023/08/11 08:49:51;;;;;;;4.32;2.17;;;20.80;99.90;;;;;;5094837;28;20079;-46
2023/08/11 08:52:17;;;;;;;5.15;2.35;;;20.90;99.90;;;;;;5094273;28;20488;-47
2023/08/11 08:54:44;;;;;;;5.55;2.10;;;20.90;99.90;;;;;;5093467;28;20102;-48
2023/08/11 08:57:10;;;;;;;5.13;2.10;;;20.90;99.90;;;;;;5092981;28;20418;-47
2023/08/11 08:59:39;;;;;;;7.07;2.67;;;21.00;99.90;;;;;;5094075;28;20483;-48
2023/08/11 09:02:06;;;;;;;3.97;2.10;;;21.00;99.90;;;;;;5094479;28;20491;-48
2023/08/11 09:04:33;;;;;;;4.90;2.25;;;21.10;99.90;;;;;;5094178;28;20059;-47
2023/08/11 09:06:59;;;;;;;6.38;2.95;;;21.10;99.90;;;;;;5094170;28;20123;-47
2023/08/11 09:09:27;;;;;;;5.35;2.30;;;21.10;99.90;;;;;;5092918;28;20044;-47
2023/08/11 09:11:54;;;;;;;4.50;2.25;;;21.30;99.90;;;;;;5093917;28;20491;-46
2023/08/11 09:14:21;;;;;;;4.32;1.98;;;21.40;99.90;;;;;;5094059;28;20096;-49
2023/08/11 09:16:47;;;;;;;7.70;2.20;;;21.40;99.90;;;;;;5094234;28;20395;-47
2023/08/11 09:19:13;;;;;;;6.07;2.30;;;21.40;99.90;;;;;;5093905;28;20040;-46
2023/08/11 09:21:43;;;;;;;3.75;1.73;;;21.50;99.90;;;;;;5093986;28;20047;-47
2023/08/11 09:24:13;;;;;;;4.03;2.13;;;21.50;99.90;;;;;;5093851;28;20055;-46
2023/08/11 09:26:52;;;;;;;4.35;2.00;;;21.50;99.90;;;;;;5093981;28;20104;-47
2023/08/11 09:29:18;;;;;;;5.10;2.15;;;21.50;99.90;;;;;;5094016;28;20080;-46
2023/08/11 09:31:49;;;;;;;5.13;2.05;;;21.50;99.90;;;;;;5076209;28;20048;-46
2023/08/11 09:34:19;;;;;;;3.03;1.45;;;21.50;99.90;;;;;;5093801;28;20383;-46
2023/08/11 09:36:46;;;;;;;6.35;2.08;;;21.60;99.90;;;;;;5093746;28;20047;-46
2023/08/11 09:39:12;;;;;;;5.63;2.22;;;21.60;99.90;;;;;;5093763;28;20044;-46
2023/08/11 09:41:45;;;;;;;;;;;21.60;99.90;;;;;;5093275;28;20040;-49
2023/08/11 09:44:14;;;;;;;4.85;1.80;;;21.60;99.90;;;;;;5093768;28;20010;-46
2023/08/11 09:46:40;;;;;;;4.63;2.05;;;21.80;99.90;;;;;;5093606;28;20395;-46
2023/08/11 09:49:07;;;;;;;4.15;1.77;;;21.80;99.90;;;;;;5093686;28;20040;-46
2023/08/11 09:51:35;;;;;;;3.83;1.60;;;21.80;99.90;;;;;;5093743;28;20483;-46
2023/08/11 09:54:05;;;;;;;4.10;1.70;;;21.90;99.90;;;;;;5093732;28;20398;-46
2023/08/11 09:56:36;;;;;;;4.38;1.80;;;21.90;99.90;;;;;;5092658;28;20044;-46
2023/08/11 09:59:11;;;;;;;3.83;1.60;;;22.00;99.90;;;;;;5093452;28;20560;-47
2023/08/11 10:01:37;;;;;;;3.95;1.55;;;22.00;99.90;;;;;;5093383;28;20040;-46
2023/08/11 10:04:10;;;;;;;3.00;1.48;;;22.10;99.90;;;;;;5093597;28;20105;-46
2023/08/11 10:06:39;;;;;;;3.90;1.60;;;22.20;99.90;;;;;;5094005;28;20097;-47
2023/08/11 10:09:11;;;;;;;3.33;1.35;;;22.20;99.90;;;;;;5093467;28;20040;-47
2023/08/11 10:11:37;;;;;;;4.60;2.08;;;22.30;99.90;;;;;;5093602;28;20054;-46
2023/08/11 10:14:04;;;;;;;3.00;1.40;;;22.30;99.90;;;;;;5093411;28;20123;-46
2023/08/11 10:16:31;;;;;;;3.25;1.40;;;22.40;99.90;;;;;;5093438;28;20044;-46
2023/08/11 10:18:57;;;;;;;2.60;1.27;;;22.40;99.90;;;;;;5094843;28;20138;-47
2023/08/11 10:21:26;;;;;;;4.25;1.33;;;22.50;99.90;;;;;;5097616;28;20052;-46
2023/08/11 10:23:55;;;;;;;3.65;1.33;;;22.60;99.90;;;;;;5079210;28;20097;-47
2023/08/11 10:26:23;;;;;;;4.43;1.50;;;22.70;99.90;;;;;;5097110;28;20051;-47
2023/08/11 10:28:49;;;;;;;3.03;1.40;;;22.80;99.90;;;;;;5096150;28;20410;-47
2023/08/11 10:31:15;;;;;;;4.75;1.50;;;22.90;99.90;;;;;;5097287;28;20048;-47
2023/08/11 10:33:49;;;;;;;4.63;1.50;;;23.00;99.90;;;;;;5095598;28;20071;-47
2023/08/11 10:36:17;;;;;;;2.90;1.30;;;23.10;99.90;;;;;;5096061;28;20059;-47
2023/08/11 10:38:44;;;;;;;5.10;1.33;;;23.20;99.90;;;;;;5096315;28;20060;-46
2023/08/11 10:41:10;;;;;;;3.72;1.73;;;23.30;99.90;;;;;;5096080;28;20048;-47
2023/08/11 10:43:40;;;;;;;3.08;1.30;;;23.30;99.90;;;;;;5096797;28;20089;-46
2023/08/11 10:46:24;;;;;;;3.95;1.48;;;23.40;99.90;;;;;;5095890;28;20483;-47
2023/08/11 10:48:51;;;;;;;4.13;1.42;;;23.40;99.90;;;;;;5095854;28;20047;-46
2023/08/11 10:51:27;;;;;;;2.95;1.20;;;23.40;99.90;;;;;;5096714;28;20554;-48
2023/08/11 10:54:23;;;;;;;3.13;1.40;;;23.50;99.90;;;;;;5096601;28;20070;-47
2023/08/11 10:56:50;;;;;;;3.15;1.30;;;23.60;99.90;;;;;;5097199;28;20079;-46
2023/08/11 10:59:18;;;;;;;2.88;1.20;;;23.80;99.90;;;;;;5095620;28;20054;-47
2023/08/11 11:01:45;;;;;;;4.15;1.45;;;23.90;99.90;;;;;;5096816;28;20055;-47
2023/08/11 11:04:12;;;;;;;2.70;1.20;;;24.00;99.90;;;;;;5095379;28;20044;-47
2023/08/11 11:06:43;;;;;;;2.47;1.17;;;24.20;99.90;;;;;;5096292;28;20499;-46
2023/08/11 11:09:09;;;;;;;2.80;1.30;;;24.30;99.90;;;;;;5096752;28;20044;-46
2023/08/11 11:11:36;;;;;;;2.78;1.20;;;24.50;99.90;;;;;;5096471;28;20040;-47
2023/08/11 11:14:07;;;;;;;2.42;1.10;;;24.60;99.90;;;;;;5096418;28;20391;-46
2023/08/11 11:16:32;;;;;;;4.80;1.33;;;24.70;99.90;;;;;;5096227;28;20048;-47
2023/08/11 11:19:05;;;;;;;;;;;24.80;99.90;;;;;;5096528;28;20044;-48
2023/08/11 11:21:32;;;;;;;3.80;1.23;;;24.80;99.90;;;;;;5096156;28;19927;-47
2023/08/11 11:23:58;;;;;;;3.53;1.30;;;24.90;99.90;;;;;;5096536;28;20133;-47
2023/08/11 11:26:31;;;;;;;3.15;1.08;;;25.00;99.90;;;;;;5096569;28;20044;-47
2023/08/11 11:28:59;;;;;;;3.88;1.23;;;25.10;99.90;;;;;;5096098;28;20510;-47
2023/08/11 11:31:27;;;;;;;2.80;1.17;;;25.20;99.90;;;;;;5094773;28;20131;-47
2023/08/11 11:33:53;;;;;;;3.40;1.00;;;25.20;99.90;;;;;;5094545;28;20052;-47
2023/08/11 11:36:19;;;;;;;;;;;25.30;99.90;;;;;;5096219;28;20071;-47
2023/08/11 11:38:46;;;;;;;2.30;1.23;;;25.40;99.90;;;;;;5095803;28;19920;-47
2023/08/11 11:41:13;;;;;;;4.45;1.40;;;25.50;99.90;;;;;;5095898;28;20445;-47
2023/08/11 11:43:40;;;;;;;3.97;1.02;;;25.50;99.90;;;;;;5095887;28;20109;-47
2023/08/11 11:46:14;;;;;;;3.40;1.00;;;25.40;99.90;;;;;;5095516;28;20131;-47
2023/08/11 11:48:54;;;;;;;4.00;1.30;;;25.40;99.90;;;;;;5095852;28;20135;-47
2023/08/11 11:51:23;;;;;;;3.35;1.20;;;25.50;99.90;;;;;;5095773;28;20060;-47
2023/08/11 11:53:51;;;;;;;3.47;1.67;;;25.50;99.90;;;;;;5095633;28;20055;-47
2023/08/11 11:56:17;;;;;;;3.88;1.50;;;25.70;99.90;;;;;;5095700;28;20054;-50
2023/08/11 11:58:45;;;;;;;2.63;1.20;;;25.70;99.90;;;;;;5094282;28;20098;-47
2023/08/11 12:01:13;;;;;;;1.88;0.88;;;25.70;99.90;;;;;;5094696;28;20060;-48
2023/08/11 12:03:39;;;;;;;2.75;0.88;;;25.80;99.90;;;;;;5095468;28;20080;-47
2023/08/11 12:06:06;;;;;;;3.35;1.20;;;25.80;99.90;;;;;;5095393;28;20101;-48
2023/08/11 12:08:34;;;;;;;2.67;1.10;;;25.90;99.90;;;;;;5094562;28;20123;-49
2023/08/11 12:11:03;;;;;;;2.67;0.98;;;26.00;99.90;;;;;;5094951;28;20487;-48
2023/08/11 12:13:31;;;;;;;3.35;0.90;;;26.10;99.90;;;;;;5095470;28;20091;-49
2023/08/11 12:15:57;;;;;;;3.42;1.02;;;26.20;99.90;;;;;;5095193;28;20144;-49
2023/08/11 12:18:23;;;;;;;6.07;1.52;;;26.30;99.90;;;;;;5095046;28;20055;-49
2023/08/11 12:20:50;;;;;;;1.92;1.13;;;26.40;99.90;;;;;;5094820;28;20048;-50
2023/08/11 12:23:16;;;;;;;3.75;1.20;;;26.50;99.90;;;;;;5095014;28;20483;-48
2023/08/11 12:25:41;;;;;;;2.25;1.00;;;26.60;99.90;;;;;;5094022;28;20051;-48
2023/08/11 12:28:07;;;;;;;3.55;1.15;;;26.70;99.90;;;;;;5094973;28;20040;-48
2023/08/11 12:30:32;;;;;;;3.53;1.23;;;26.80;99.90;;;;;;5094850;28;20416;-48
2023/08/11 12:32:58;;;;;;;2.35;1.00;;;26.80;99.90;;;;;;5094638;28;20516;-48
2023/08/11 12:35:24;;;;;;;4.10;1.92;;;26.90;99.90;;;;;;5094960;28;20055;-47
2023/08/11 12:37:51;;;;;;;2.30;1.10;;;27.00;99.90;;;;;;5094664;28;20044;-47
2023/08/11 12:40:18;;;;;;;4.63;1.23;;;27.00;99.90;;;;;;5094493;28;20132;-47
2023/08/11 12:42:44;;;;;;;2.83;1.25;;;26.90;99.90;;;;;;5094330;28;20052;-47
2023/08/11 12:45:11;;;;;;;2.58;0.90;;;26.90;99.90;;;;;;5094601;28;20040;-47
2023/08/11 12:47:37;;;;;;;2.53;1.05;;;26.80;99.90;;;;;;5094944;28;20109;-47